Rockville, Maryland
Current Conditions -  °F | °C
As of 2:35 AM on Thursday 18 Dec 2014 (Local Time) from KGAI Reporting Station
Overcast Overcast  
Wind Chill: 24°   Ceiling: 4700
Heat Index: 34°   Visibility: 10mi
Dew Point: 21°   Wind: 15mph
Humidity: 60%   Direction: 300°WNW
Pressure: 30.1"   Gusts: 21mph
Location:  39.08°N, 77.15°W
Report Text: KGAI 180735Z 30013G18KT 10SM OVC047 01/M06 A3010 RMK AO1
Loading
Personal Weather Stations






























Interactive Weather Map New forecast layout! Learn more

10-Day Weather Forecast

Advertisements
Track Severe Weather on mobile